No particular awareness of the weather is required.    There are no Weather-warnings

Webcam Vacarisses more information Webcam Vacarisses


Thunder radar more information blitzortung!


Rain radar more information rain snow radar


Visit our other weather sites:

Template documentation
and downloads

And another site



Nearby METAR Reports

   
EBAW - Antwerp
Updated: 18-02-2018 20:50
Clear  
Clear  
   Wind: SSE 9.3 km/h
Wind: SSE 9.3 km/h
Temperature: 0°C
Wind Chill: -3°C
Dew Point: -2°C
Humidity: 87%
Barometer: 1024 hPa
Visibility: More than 10 km
Cloud details: Clear
EBAW 181950Z 16005KT CAVOK 00/M02 Q1024 NOSIG
EBLG - Li├Ęge
Updated: 18-02-2018 20:50
Clear  
Clear  
   Wind: South 9.3 km/h
Wind: South 9.3 km/h
Temperature: 2°C
Wind Chill: -1°C
Dew Point: -4°C
Humidity: 65%
Barometer: 1024 hPa
Visibility: More than 10 km
Cloud details: Clear
EBLG 181950Z 17005KT CAVOK 02/M04 Q1024 NOSIG
EBCV - Mons/Bergen
Updated: 18-02-2018 20:55
Few Clouds  
Few Clouds  
   Wind: SSE 13 km/h
Wind: SSE 13 km/h
Temperature: 3°C
Wind Chill: -1°C
Dew Point: 0°C
Humidity: 81%
Barometer: 1023 hPa
Clouds: Few Clouds
Visibility: 9 km
Cloud details: Few Clouds 21000 ft
EBCV 181955Z AUTO 15007KT 9000 FEW210/// 03/M00 Q1023 BLU
EHBK - Maastricht
Updated: 18-02-2018 20:55
Clear  
Clear  
   Wind: South 11.1 km/h
Wind: South 11.1 km/h
Temperature: 2°C
Wind Chill: -1°C
Dew Point: -4°C
Humidity: 65%
Barometer: 1024 hPa
Clouds: Clear
Visibility: More than 10 km
Cloud details: Clear
EHBK 181955Z AUTO 19006KT 9999 NCD 02/M04 Q1024 NOSIG
ELLX - Luxemburg
Updated: 18-02-2018 20:50
Mist, Few Clouds  
Mist, Few Clouds  
   Wind: varies 3.7 km/h
Wind: varies 3.7 km/h
Temperature: -2°C
Dew Point: -2°C
Humidity: 100%
Barometer: 1023 hPa
Clouds: Few Clouds
Visibility: 3 km
Cloud details: Few Clouds 1800 ft
ELLX 181950Z VRB02KT 3000 BR FEW018 M02/M02 Q1023 R99/29//53 NOSIG
EBOS - Oostende
Updated: 18-02-2018 20:50
Clear  
Clear  
   Wind: SSE 13 km/h
Wind: SSE 13 km/h
Temperature: 3°C
Wind Chill: -1°C
Dew Point: 0°C
Humidity: 81%
Barometer: 1023 hPa
Visibility: More than 10 km
Cloud details: Clear
EBOS 181950Z 15007KT CAVOK 03/00 Q1023 NOSIG

Script developed by  Saratoga-weather.org Adapted for the template by  Weerstation Leuven

You find our weather info also at:

UK Metoffice

European Weather Network

WeatherCloud

Weather Underground

AWEKAS

WeatherlinkIP

Citizen Weather Observer Program (CWOP)

HAMweather, WeatherForYou, PWS Weather

Equipment we use:

Weather-station
Davis Vantage Vue

Weather-program
Weather Display

Weather-server
My Computer

Provider
My provider

Davis Vantage Vue

Weather Display

My Computer

My provider